Terminal Aerodrome Forecast
Issued by NWS Louisville, KY

Home | Current Version | Previous Version | Text Only | Print | Product List | Glossary On
Versions: 1 2 3 4 5 6 7 8 9 10 11 12 13 14 15 16 17 18
000
FTUS43 KLMK 101700
TAFLEX
TAF
KLEX 101720Z 1018/1118 35005KT P6SM VCSH SCT050
     FM102300 02005KT P6SM SCT050
     FM110200 05003KT P6SM FEW250=

USA.gov is the U.S. government's official web portal to all federal, state and local government web resources and services.